This is the latest recevied weather packets stored in our database for station/object FREPRT-WX. If no packets are shown the sender has not sent any weather packets the latest 1 day(s).
| Time | Temp. | Humidity | Pressure | Rain* | Wind** | Luminosity | Snow |
|---|---|---|---|---|---|---|---|
| 1777976139 | 10° C | 57% | 972.3 hPa | 0 mm | 4.47 m/s, 259° | - | - |
| 1777975275 | 10.56° C | 57% | 972.3 hPa | 0 mm | 4.92 m/s, 263° | - | - |
| 1777974339 | 10.56° C | 68% | 972.6 hPa | 0 mm | 4.47 m/s, 260° | - | - |
| 1777973462 | 10.56° C | 65% | 972.3 hPa | 0 mm | 3.58 m/s, 264° | - | - |
| 1777972540 | 10.56° C | 65% | 972.2 hPa | 0 mm | 5.36 m/s, 256° | - | - |
| 1777971678 | 10.56° C | 65% | 972.2 hPa | 0 mm | 2.68 m/s, 239° | - | - |
| 1777970738 | 11.67° C | 75% | 972.7 hPa | 0 mm | 4.47 m/s, 260° | - | - |
| 1777969858 | 11.11° C | 75% | 972 hPa | 0 mm | 4.47 m/s, 256° | - | - |
| 1777968939 | 11.67° C | 75% | 972 hPa | 0 mm | 4.47 m/s, 254° | - | - |
| 1777968070 | 12.22° C | 67% | 972.2 hPa | 0 mm | 4.92 m/s, 254° | - | - |
| 1777967140 | 12.78° C | 76% | 971.4 hPa | 0 mm | 5.36 m/s, 245° | - | - |
| 1777966260 | 12.78° C | 76% | 971.4 hPa | 0 mm | 4.47 m/s, 233° | - | - |
| 1777965340 | 13.33° C | 76% | 971.5 hPa | 0 mm | 5.36 m/s, 224° | - | - |
| 1777964472 | 13.89° C | 76% | 971.5 hPa | 0 mm | 5.36 m/s, 226° | - | - |
| 1777963539 | 13.33° C | 77% | 972.1 hPa | 0 mm | 4.47 m/s, 235° | - | - |
| 1777962656 | 13.89° C | 74% | 971.5 hPa | 0 mm | 5.36 m/s, 231° | - | - |
| 1777961740 | 13.89° C | 74% | 971.5 hPa | 0 mm | 5.36 m/s, 234° | - | - |
| 1777960881 | 14.44° C | 74% | 971.5 hPa | 0 mm | 4.92 m/s, 233° | - | - |
| 1777959940 | 14.44° C | 74% | 972.6 hPa | 0 mm | 4.02 m/s, 243° | - | - |
| 1777959063 | 14.44° C | 66% | 971.2 hPa | 0 mm | 5.36 m/s, 230° | - | - |
* Rain latest hour (hover to see other rain measurements)
** Current wind speed in m/s (hover to see current wind gust speed)